Time;durP1;ratioP1;P1;durP2;ratioP2;P2;SDS_P1;SDS_P2;PMS_P1;PMS_P2;Temp;Humidity;BMP_temperature;BMP_pressure;BME280_temperature;BME280_humidity;BME280_pressure;Samples;Min_cycle;Max_cycle;Signal;HPM_P1;HPM_P2
2022/09/18 00:01:38;;;;;;;;;1.00;1.00;;;;;10.66;100.00;98583.13;6334404;20;1800350;-55
2022/09/18 00:04:10;;;;;;;;;2.00;1.50;;;;;10.60;100.00;98589.84;6314824;20;2728458;-54
2022/09/18 00:06:42;;;;;;;;;3.00;2.00;;;;;10.66;100.00;98578.59;6281846;20;2746260;-50
2022/09/18 00:09:14;;;;;;;;;3.00;2.00;;;;;10.75;100.00;98580.56;6283469;20;2752452;-51
2022/09/18 00:11:48;;;;;;;;;1.00;1.00;;;;;10.57;100.00;98579.34;6298550;20;1807789;-50
2022/09/18 00:14:21;;;;;;;;;2.00;2.00;;;;;10.61;100.00;98583.53;6314863;20;2744036;-51
2022/09/18 00:16:50;;;;;;;;;2.00;2.00;;;;;10.55;100.00;98581.31;6283575;20;2732629;-54
2022/09/18 00:19:20;;;;;;;;;2.25;2.25;;;;;10.59;100.00;98577.41;6295608;20;1801391;-52
2022/09/18 00:21:50;;;;;;;;;3.00;1.00;;;;;10.61;100.00;98580.84;6315055;20;2731559;-50
2022/09/18 00:24:19;;;;;;;;;3.50;3.00;;;;;10.57;100.00;98587.41;6281112;20;2756527;-56
2022/09/18 00:26:47;;;;;;;;;2.50;2.50;;;;;10.55;100.00;98587.50;6285199;20;2750364;-53
2022/09/18 00:29:16;;;;;;;;;2.00;2.00;;;;;10.41;100.00;98589.59;6283216;20;2749270;-53
2022/09/18 00:31:45;;;;;;;;;3.00;3.00;;;;;10.49;100.00;98587.16;6282592;20;2746183;-52
2022/09/18 00:34:15;;;;;;;;;3.00;3.00;;;;;10.61;100.00;98579.97;6282136;20;2742721;-51
2022/09/18 00:36:43;;;;;;;;;2.00;2.00;;;;;10.50;100.00;98583.50;6281240;20;2748252;-50
2022/09/18 00:39:12;;;;;;;;;3.00;3.00;;;;;10.48;100.00;98580.09;6301188;20;1799447;-52
2022/09/18 00:41:43;;;;;;;;;5.60;3.20;;;;;10.50;100.00;98578.13;6353865;20;2484664;-53
2022/09/18 00:44:46;;;;;;;;;2.00;2.00;;;;;10.51;100.00;98585.22;6315016;20;2752458;-51
2022/09/18 00:47:48;;;;;;;;;2.50;2.50;;;;;10.35;100.00;98587.38;6298809;20;1830345;-53
2022/09/18 00:50:26;;;;;;;;;4.00;4.00;;;;;10.38;100.00;98587.16;6311532;20;2756532;-52
2022/09/18 00:53:00;;;;;;;;;3.50;3.50;;;;;10.42;100.00;98581.41;6280996;20;2741920;-49
2022/09/18 00:55:37;;;;;;;;;3.00;3.00;;;;;10.42;100.00;98592.16;6296154;20;1813049;-48
2022/09/18 00:58:05;;;;;;;;;3.00;3.00;;;;;10.39;100.00;98583.50;6312709;20;2744001;-49
2022/09/18 01:00:35;;;;;;;;;5.00;4.00;;;;;10.45;100.00;98588.38;6293313;20;1821159;-54
2022/09/18 01:03:03;;;;;;;;;5.00;5.00;;;;;10.50;100.00;98591.53;6315084;20;2740906;-56
2022/09/18 01:06:11;;;;;;;;;4.00;4.00;;;;;10.41;100.00;98592.28;6280238;20;2754479;-54
2022/09/18 01:08:59;;;;;;;;;3.00;3.00;;;;;10.45;100.00;98586.56;6283540;20;2754547;-52
2022/09/18 01:12:02;;;;;;;;;5.50;3.00;;;;;10.38;100.00;98589.84;6282162;20;2741948;-54
2022/09/18 01:15:14;;;;;;;;;2.50;2.00;;;;;10.35;100.00;98584.69;6281367;20;2732548;-56
2022/09/18 01:18:28;;;;;;;;;4.00;4.00;;;;;10.36;100.00;98587.28;6281773;20;2752404;-50
2022/09/18 01:21:01;;;;;;;;;4.00;4.00;;;;;10.50;100.00;98584.34;6279875;20;2750433;-53
2022/09/18 01:24:25;;;;;;;;;3.00;3.00;;;;;10.28;100.00;98587.03;6281983;20;2733657;-55
2022/09/18 01:27:05;;;;;;;;;3.00;3.00;;;;;10.47;100.00;98595.31;6276950;20;2732567;-49
2022/09/18 01:30:07;;;;;;;;;4.00;4.00;;;;;10.36;100.00;98598.00;6281008;20;2748300;-53
2022/09/18 01:33:02;;;;;;;;;3.00;3.00;;;;;10.44;100.00;98600.09;6278832;20;2735672;-51
2022/09/18 01:35:52;;;;;;;;;2.75;2.75;;;;;10.41;100.00;98605.69;6291736;20;1798787;-53
2022/09/18 01:38:35;;;;;;;;;5.50;4.00;;;;;10.39;100.00;98605.81;6315483;20;2754442;-52
2022/09/18 01:41:18;;;;;;;;;2.50;2.50;;;;;10.25;100.00;98608.69;6283680;20;2748168;-51
2022/09/18 01:44:23;;;;;;;;;6.50;3.50;;;;;10.37;100.00;98606.91;6282864;20;2752488;-53
2022/09/18 01:46:52;;;;;;;;;4.00;4.00;;;;;10.25;100.00;98604.19;6280279;20;2755455;-49
2022/09/18 01:49:28;;;;;;;;;5.00;5.00;;;;;10.29;100.00;98613.75;6282788;20;2749044;-54
2022/09/18 01:52:22;;;;;;;;;4.00;4.00;;;;;10.36;100.00;98626.66;6283228;20;2750330;-54
2022/09/18 01:54:52;;;;;;;;;7.00;5.00;;;;;10.33;100.00;98625.06;6283992;20;2739868;-53
2022/09/18 01:58:19;;;;;;;;;5.00;4.00;;;;;10.26;100.00;98635.38;6285337;20;2754426;-50
2022/09/18 02:00:59;;;;;;;;;4.75;2.00;;;;;10.17;100.00;98640.63;6300686;20;1802418;-52
2022/09/18 02:03:36;;;;;;;;;5.00;5.00;;;;;10.20;100.00;98637.69;6314891;20;2743038;-53
2022/09/18 02:06:31;;;;;;;;;6.00;6.00;;;;;10.14;100.00;98640.84;6285195;20;2466955;-55
2022/09/18 02:09:01;;;;;;;;;4.00;4.00;;;;;10.21;100.00;98642.09;6282271;20;2752338;-49
2022/09/18 02:11:32;;;;;;;;;6.00;6.00;;;;;10.26;100.00;98640.75;6284564;20;2732538;-52
2022/09/18 02:14:15;;;;;;;;;4.50;4.50;;;;;10.20;100.00;98651.09;6282994;20;2740886;-55
2022/09/18 02:17:04;;;;;;;;;7.00;7.00;;;;;10.16;100.00;98647.78;6283259;20;2741973;-51
2022/09/18 02:19:48;;;;;;;;;5.00;5.00;;;;;10.23;100.00;98645.50;6284613;20;2745067;-54
2022/09/18 02:22:20;;;;;;;;;5.00;5.00;;;;;10.11;100.00;98650.00;6284145;20;2741972;-53
2022/09/18 02:24:52;;;;;;;;;7.00;5.50;;;;;10.14;100.00;98651.56;6283085;20;2744517;-54
2022/09/18 02:27:24;;;;;;;;;6.00;4.50;;;;;9.99;100.00;98653.59;6281630;20;2747169;-51
2022/09/18 02:29:55;;;;;;;;;8.40;6.80;;;;;10.06;100.00;98641.44;6306646;20;2758860;-51
2022/09/18 02:32:23;;;;;;;;;9.50;6.00;;;;;9.99;100.00;98661.66;6310868;20;2753483;-54
2022/09/18 02:34:51;;;;;;;;;6.00;6.00;;;;;10.01;100.00;98652.50;6283452;20;2744087;-50
2022/09/18 02:38:17;;;;;;;;;4.50;4.50;;;;;9.96;100.00;98660.06;6283836;20;2752346;-53
2022/09/18 02:41:10;;;;;;;;;5.50;5.50;;;;;9.96;100.00;98665.41;6279988;20;2739849;-56
2022/09/18 02:44:09;;;;;;;;;7.00;4.00;;;;;9.94;100.00;98661.13;6283885;20;2745114;-56
2022/09/18 02:47:22;;;;;;;;;8.00;6.00;;;;;9.97;100.00;98666.25;6280616;20;2739860;-56
2022/09/18 02:50:12;;;;;;;;;5.50;5.50;;;;;10.01;100.00;98667.75;6321840;20;1797229;-54
2022/09/18 02:53:06;;;;;;;;;10.50;5.00;;;;;9.89;100.00;98678.41;6285446;20;2746139;-54
2022/09/18 02:55:49;;;;;;;;;4.00;4.00;;;;;9.82;100.00;98671.81;6281690;20;2752445;-56
2022/09/18 02:58:40;;;;;;;;;7.00;6.00;;;;;9.77;100.00;98674.00;6284166;20;2731551;-53
2022/09/18 03:01:09;;;;;;;;;5.00;5.00;;;;;9.76;100.00;98685.66;6285228;20;2737932;-53
2022/09/18 03:03:38;;;;;;;;;6.00;6.00;;;;;9.79;100.00;98696.16;6313728;20;2743024;-52
2022/09/18 03:06:09;;;;;;;;;7.43;5.00;;;;;9.81;100.00;98690.69;6356119;20;1791944;-56
2022/09/18 03:08:37;;;;;;;;;6.50;5.00;;;;;9.83;100.00;98696.78;6316926;20;2744209;-53
2022/09/18 03:11:05;;;;;;;;;6.00;4.00;;;;;9.86;100.00;98686.69;6285960;20;2748282;-53
2022/09/18 03:13:33;;;;;;;;;5.00;4.00;;;;;9.73;100.00;98693.09;6287512;20;2749208;-53
2022/09/18 03:16:01;;;;;;;;;6.00;4.50;;;;;9.91;100.00;98693.53;6280009;20;2751347;-53
2022/09/18 03:18:28;;;;;;;;;7.00;6.00;;;;;9.79;100.00;98684.56;6286965;20;2748269;-53
2022/09/18 03:20:56;;;;;;;;;4.00;4.00;;;;;9.77;100.00;98692.75;6279860;20;2752623;-55
2022/09/18 03:23:24;;;;;;;;;3.50;3.50;;;;;9.72;100.00;98691.38;6286236;20;2756546;-52
2022/09/18 03:25:51;;;;;;;;;6.00;4.00;;;;;9.61;100.00;98693.03;6281199;20;2735749;-55
2022/09/18 03:28:19;;;;;;;;;5.00;5.00;;;;;9.51;100.00;98688.47;6316054;20;2752427;-55
2022/09/18 03:30:48;;;;;;;;;5.00;5.00;;;;;9.49;100.00;98698.44;6281134;20;2747233;-61
2022/09/18 03:33:16;;;;;;;;;5.50;4.00;;;;;9.42;100.00;98692.66;6282662;20;2752344;-62
2022/09/18 03:35:44;;;;;;;;;3.50;3.50;;;;;9.30;100.00;98689.06;6284134;20;2746245;-58
2022/09/18 03:38:13;;;;;;;;;3.25;3.25;;;;;9.51;100.00;98693.81;6301771;20;1811864;-61
2022/09/18 03:40:44;;;;;;;;;6.00;5.00;;;;;9.37;100.00;98695.69;6312953;20;2749223;-61
2022/09/18 03:43:14;;;;;;;;;3.00;3.00;;;;;9.34;100.00;98701.25;6284240;20;2744018;-61
2022/09/18 03:45:43;;;;;;;;;4.00;4.00;;;;;9.35;100.00;98692.25;6282146;20;2750253;-61
2022/09/18 03:48:11;;;;;;;;;4.25;3.00;;;;;9.36;100.00;98698.47;6302939;20;1812873;-61
2022/09/18 03:50:39;;;;;;;;;4.00;3.00;;;;;9.23;100.00;98698.50;6310952;20;2747209;-61
2022/09/18 03:53:07;;;;;;;;;5.00;3.00;;;;;9.22;100.00;98712.84;6282716;20;2743112;-61
2022/09/18 03:55:36;;;;;;;;;3.00;3.00;;;;;9.15;100.00;98711.56;6298867;20;1810765;-61
2022/09/18 03:58:04;;;;;;;;;4.00;4.00;;;;;9.18;100.00;98716.72;6317170;20;2752759;-61
2022/09/18 04:00:32;;;;;;;;;5.00;3.00;;;;;9.12;100.00;98719.84;6283802;20;2739888;-62
2022/09/18 04:03:01;;;;;;;;;3.75;2.00;;;;;9.20;100.00;98721.00;6330492;20;1809766;-61
2022/09/18 04:05:28;;;;;;;;;3.00;3.00;;;;;9.10;100.00;98724.44;6313598;20;2748263;-61
2022/09/18 04:07:57;;;;;;;;;8.50;4.50;;;;;9.11;100.00;98723.44;6300234;20;1819131;-61
2022/09/18 04:10:25;;;;;;;;;3.00;3.00;;;;;9.09;100.00;98736.97;6315153;20;2744423;-60
2022/09/18 04:12:54;;;;;;;;;5.25;3.00;;;;;8.92;100.00;98738.13;6297869;20;1812205;-61
2022/09/18 04:15:22;;;;;;;;;5.00;3.00;;;;;8.94;100.00;98741.56;6314509;20;2744553;-61
2022/09/18 04:17:49;;;;;;;;;4.00;2.00;;;;;9.04;100.00;98738.25;6286066;20;2748212;-61
2022/09/18 04:20:18;;;;;;;;;3.00;3.00;;;;;9.05;100.00;98746.16;6297770;20;1810815;-61
2022/09/18 04:22:45;;;;;;;;;5.00;2.00;;;;;9.06;100.00;98745.22;6312523;20;2754554;-62
2022/09/18 04:25:16;;;;;;;;;3.50;3.50;;;;;9.06;99.78;98745.22;6288443;20;2737848;-61
2022/09/18 04:27:46;;;;;;;;;12.50;11.50;;;;;9.10;99.49;98759.25;6312254;20;2787748;-60
2022/09/18 04:30:14;;;;;;;;;4.50;4.50;;;;;9.02;99.34;98763.31;6281749;20;2747127;-61
2022/09/18 04:32:48;;;;;;;;;5.29;3.71;;;;;9.10;99.16;98776.16;6323435;20;1797305;-61
2022/09/18 04:35:17;;;;;;;;;6.00;6.00;;;;;9.15;97.71;98765.13;6308951;20;2749219;-62
2022/09/18 04:37:45;;;;;;;;;4.00;4.00;;;;;9.10;97.99;98768.13;6280886;20;2756659;-62
2022/09/18 04:40:13;;;;;;;;;4.00;2.00;;;;;9.14;97.50;98768.78;6297168;20;1812647;-62
2022/09/18 04:42:41;;;;;;;;;8.00;8.00;;;;;9.16;97.51;98772.19;6310579;20;2746082;-62
2022/09/18 04:45:10;;;;;;;;;7.00;5.50;;;;;9.06;97.95;98771.13;6283527;20;2745097;-63
2022/09/18 04:47:38;;;;;;;;;4.00;4.00;;;;;9.06;98.34;98780.03;6285240;20;2751364;-61
2022/09/18 04:50:07;;;;;;;;;6.00;5.00;;;;;9.01;99.29;98779.50;6281032;20;2739848;-62
2022/09/18 04:52:35;;;;;;;;;4.00;4.00;;;;;8.86;99.41;98780.56;6279948;20;2747134;-61
2022/09/18 04:55:03;;;;;;;;;3.00;3.00;;;;;8.97;99.10;98783.34;6281774;20;2738844;-60
2022/09/18 04:57:31;;;;;;;;;2.00;2.00;;;;;9.01;98.72;98785.69;6280295;20;2753367;-61
2022/09/18 05:00:00;;;;;;;;;3.25;2.25;;;;;9.04;98.49;98798.03;6298301;20;1813191;-61
2022/09/18 05:02:27;;;;;;;;;3.00;3.00;;;;;8.99;98.14;98790.31;6311663;20;2735702;-62
2022/09/18 05:04:55;;;;;;;;;6.00;3.00;;;;;9.18;97.67;98807.75;6280810;20;2756552;-61
2022/09/18 05:07:23;;;;;;;;;2.00;2.00;;;;;9.14;97.52;98801.78;6284230;20;2743995;-61
2022/09/18 05:09:50;;;;;;;;;6.00;5.00;;;;;9.12;97.13;98808.19;6281448;20;2745052;-61
2022/09/18 05:12:18;;;;;;;;;4.00;4.00;;;;;9.22;97.17;98809.28;6282635;20;2751432;-62
2022/09/18 05:14:46;;;;;;;;;9.50;6.00;;;;;9.25;96.93;98814.41;6276384;20;2750431;-61
2022/09/18 05:17:15;;;;;;;;;3.00;3.00;;;;;9.28;96.70;98819.53;6299738;20;1810272;-61
2022/09/18 05:19:43;;;;;;;;;2.25;2.00;;;;;9.30;96.12;98817.63;6331246;20;1811851;-62
2022/09/18 05:22:11;;;;;;;;;3.00;3.00;;;;;9.39;96.13;98825.00;6311764;20;2752382;-62
2022/09/18 05:24:39;;;;;;;;;1.75;1.50;;;;;9.43;95.26;98829.19;6299538;20;1806605;-60
2022/09/18 05:27:08;;;;;;;;;3.00;1.00;;;;;9.52;95.21;98834.84;6326915;20;1803482;-61
2022/09/18 05:29:36;;;;;;;;;2.00;2.00;;;;;9.47;94.59;98832.50;6310857;20;2733748;-62
2022/09/18 05:32:05;;;;;;;;;0.00;0.00;;;;;9.57;93.96;98841.59;6294487;20;1807679;-62
2022/09/18 05:34:34;;;;;;;;;2.00;2.00;;;;;9.72;93.48;98841.50;6330156;20;1795108;-63
2022/09/18 05:37:02;;;;;;;;;4.00;2.00;;;;;9.75;93.48;98847.47;6328977;20;1803596;-62
2022/09/18 05:39:30;;;;;;;;;1.25;1.25;;;;;9.65;93.27;98841.06;6328439;20;1805509;-62
2022/09/18 05:41:59;;;;;;;;;3.00;1.67;;;;;9.76;93.28;98857.22;6329253;20;1803514;-61
2022/09/18 05:44:27;;;;;;;;;2.00;2.00;;;;;9.84;94.01;98849.47;6314773;20;2739882;-61
2022/09/18 05:46:55;;;;;;;;;5.00;2.00;;;;;9.93;92.80;98855.19;6295627;20;1807837;-62
2022/09/18 05:49:24;;;;;;;;;3.00;1.00;;;;;10.10;92.34;98850.28;6333045;20;1803427;-62
2022/09/18 05:51:55;;;;;;;;;2.25;2.00;;;;;10.45;91.42;98844.19;6326575;20;1828457;-63
2022/09/18 05:54:24;;;;;;;;;2.50;1.00;;;;;10.52;90.41;98844.56;6330491;20;1803498;-62
2022/09/18 05:56:53;;;;;;;;;1.50;1.50;;;;;10.43;90.32;98851.50;6331378;20;1799225;-62
2022/09/18 05:59:21;;;;;;;;;2.00;2.00;;;;;11.38;86.98;98849.59;6329335;20;1809829;-62
2022/09/18 06:01:50;;;;;;;;;2.00;2.00;;;;;12.28;82.06;98851.41;6331357;20;1800331;-62
2022/09/18 06:04:18;;;;;;;;;1.00;1.00;;;;;11.33;84.28;98850.94;6329691;20;1805654;-61
2022/09/18 06:06:47;;;;;;;;;1.75;1.00;;;;;11.24;84.92;98852.47;6329674;20;1803483;-61
2022/09/18 06:09:15;;;;;;;;;0.67;0.00;;;;;11.73;83.78;98854.00;6318530;20;3435805;-61
2022/09/18 06:11:43;;;;;;;;;2.25;1.50;;;;;11.90;83.38;98854.50;6302685;20;1803607;-62
2022/09/18 06:14:11;;;;;;;;;0.50;0.50;;;;;14.35;74.64;98865.09;6318653;20;2466940;-61
2022/09/18 06:16:39;;;;;;;;;4.00;0.50;;;;;14.12;71.52;98867.16;6282323;20;2723189;-59
2022/09/18 06:19:09;;;;;;;;;0.25;0.25;;;;;16.31;65.54;98878.25;6303023;20;1807734;-60
2022/09/18 06:21:37;;;;;;;;;0.00;0.00;;;;;15.84;64.19;98875.59;6317609;20;2727432;-57
2022/09/18 06:24:07;;;;;;;;;1.00;1.00;;;;;13.14;72.42;98890.91;6300813;20;1794093;-58
2022/09/18 06:26:36;;;;;;;;;3.00;0.00;;;;;12.17;78.06;98889.97;6335583;20;1804658;-60
2022/09/18 06:29:04;;;;;;;;;2.00;0.75;;;;;11.94;80.43;98881.06;6339153;20;1803073;-60
2022/09/18 06:31:32;;;;;;;;;1.00;1.00;;;;;12.04;81.07;98900.88;6318321;20;2727368;-60
2022/09/18 06:34:00;;;;;;;;;2.00;2.00;;;;;11.97;80.45;98894.25;6301112;20;1809754;-60
2022/09/18 06:36:29;;;;;;;;;1.00;1.00;;;;;12.15;81.54;98915.28;6335908;20;1797206;-60
2022/09/18 06:38:57;;;;;;;;;1.00;1.00;;;;;11.81;80.45;98904.50;6320951;20;2456526;-59
2022/09/18 06:41:25;;;;;;;;;0.00;0.00;;;;;11.71;80.19;98904.34;6308133;20;1807735;-59
2022/09/18 06:43:53;;;;;;;;;1.33;1.00;;;;;11.88;79.41;98902.22;6338968;20;1800452;-60
2022/09/18 06:46:23;;;;;;;;;2.00;1.00;;;;;12.25;78.57;98913.56;6335763;20;1802417;-60
2022/09/18 06:48:52;;;;;;;;;2.50;1.00;;;;;12.50;78.34;98910.56;6339482;20;1807661;-59
2022/09/18 06:51:19;;;;;;;;;2.00;0.00;;;;;12.34;77.41;98911.97;6320993;20;2735723;-58
2022/09/18 06:53:48;;;;;;;;;1.00;1.00;;;;;12.35;78.00;98909.16;6306781;20;1798230;-57
2022/09/18 06:56:15;;;;;;;;;1.00;1.00;;;;;12.38;77.27;98911.59;6321469;20;2458606;-59
2022/09/18 06:58:44;;;;;;;;;0.00;0.00;;;;;12.59;76.59;98917.06;6290027;20;2729435;-58
2022/09/18 07:01:11;;;;;;;;;2.00;1.00;;;;;12.52;77.60;98908.63;6292930;20;2731506;-58
2022/09/18 07:03:39;;;;;;;;;1.00;1.00;;;;;12.98;76.59;98911.16;6292169;20;2737851;-59
2022/09/18 07:06:09;;;;;;;;;0.00;0.00;;;;;13.42;74.76;98923.59;6293325;20;2727354;-59
2022/09/18 07:08:37;;;;;;;;;2.00;0.50;;;;;16.19;65.60;98934.44;6291137;20;2729559;-60
2022/09/18 07:11:04;;;;;;;;;1.00;1.00;;;;;18.35;57.37;98941.56;6288581;20;2737483;-59
2022/09/18 07:13:33;;;;;;;;;0.00;0.00;;;;;15.76;62.45;98928.59;6288122;20;2727396;-58
2022/09/18 07:16:01;;;;;;;;;1.00;1.00;;;;;13.45;68.54;98944.91;6286660;20;2731609;-59
2022/09/18 07:18:29;;;;;;;;;1.00;1.00;;;;;13.17;71.92;98931.06;6287846;20;2740907;-59
2022/09/18 07:20:59;;;;;;;;;2.50;1.00;;;;;13.53;70.02;98939.75;6285548;20;2727347;-60
2022/09/18 07:23:29;;;;;;;;;2.00;1.00;;;;;13.78;70.57;98949.25;6292856;20;2727389;-60
2022/09/18 07:26:03;;;;;;;;;0.00;0.00;;;;;13.02;71.55;98936.88;6303095;20;1805548;-59
2022/09/18 07:28:31;;;;;;;;;0.00;0.00;;;;;13.02;73.02;98939.56;6324209;20;2727360;-58
2022/09/18 07:31:05;;;;;;;;;2.00;2.00;;;;;13.36;73.15;98948.41;6291417;20;2739836;-60
2022/09/18 07:33:34;;;;;;;;;1.00;1.00;;;;;13.21;74.15;98942.44;6304086;20;1805590;-57
2022/09/18 07:36:04;;;;;;;;;1.50;1.50;;;;;13.35;73.58;98949.41;6320844;20;2735671;-59
2022/09/18 07:38:33;;;;;;;;;1.00;1.00;;;;;13.46;73.04;98948.47;6289678;20;2727342;-56
2022/09/18 07:41:01;;;;;;;;;1.00;1.00;;;;;13.25;72.28;98951.97;6287650;20;2733769;-58
2022/09/18 07:43:30;;;;;;;;;5.00;4.00;;;;;13.65;71.76;98955.84;6284528;20;2757145;-57
2022/09/18 07:45:59;;;;;;;;;1.75;1.75;;;;;13.43;73.10;98951.41;6301057;20;1807673;-56
2022/09/18 07:48:28;;;;;;;;;2.75;0.00;;;;;13.79;72.01;98959.03;6335424;20;1803394;-56
2022/09/18 07:50:58;;;;;;;;;3.00;2.00;;;;;13.90;71.77;98965.34;6322094;20;2739854;-58
2022/09/18 07:53:26;;;;;;;;;1.00;1.00;;;;;13.56;72.48;98968.25;6292920;20;2727339;-58
2022/09/18 07:55:56;;;;;;;;;2.50;2.00;;;;;13.88;71.06;98949.31;6287769;20;2752339;-59
2022/09/18 07:58:24;;;;;;;;;2.00;2.00;;;;;13.30;71.76;98963.25;6291405;20;2748165;-57
2022/09/18 08:00:52;;;;;;;;;4.00;3.00;;;;;13.86;71.94;98955.84;6289326;20;2740875;-56
2022/09/18 08:03:24;;;;;;;;;3.00;2.00;;;;;14.07;71.74;98964.75;6286018;20;2752338;-58
2022/09/18 08:05:53;;;;;;;;;3.00;1.50;;;;;13.69;71.08;98954.56;6283503;20;2737759;-55
2022/09/18 08:08:21;;;;;;;;;0.00;0.00;;;;;14.22;69.85;98959.84;6286472;20;2729505;-61
2022/09/18 08:10:49;;;;;;;;;2.50;0.00;;;;;13.84;69.97;98948.72;6288323;20;2730470;-59
2022/09/18 08:13:16;;;;;;;;;1.00;1.00;;;;;13.73;71.52;98959.59;6289660;20;2728374;-54
2022/09/18 08:15:45;;;;;;;;;1.00;1.00;;;;;13.86;69.53;98958.53;6299855;20;1802492;-60
2022/09/18 08:18:13;;;;;;;;;2.00;1.00;;;;;13.77;71.05;98952.94;6319707;20;2727381;-58
2022/09/18 08:20:41;;;;;;;;;0.00;0.00;;;;;13.86;69.64;98972.03;6306579;20;1798281;-58
2022/09/18 08:23:11;;;;;;;;;2.00;0.00;;;;;13.52;69.41;98967.69;6337855;20;1803418;-57
2022/09/18 08:25:40;;;;;;;;;1.00;1.00;;;;;13.52;71.48;98969.53;6318889;20;2729418;-56
2022/09/18 08:28:09;;;;;;;;;1.00;1.00;;;;;13.15;70.12;98978.00;6300331;20;1799370;-58
2022/09/18 08:30:38;;;;;;;;;4.25;4.25;;;;;13.38;69.56;98976.94;6334734;20;1802464;-57
2022/09/18 08:33:09;;;;;;;;;4.00;3.00;;;;;13.83;70.02;98978.53;6334251;20;1797890;-57
2022/09/18 08:35:38;;;;;;;;;3.00;1.75;;;;;13.35;70.18;98987.16;6331302;20;1800513;-60
2022/09/18 08:38:09;;;;;;;;;4.50;4.50;;;;;13.78;70.71;98975.38;6318779;20;2748283;-54
2022/09/18 08:40:51;;;;;;;;;1.00;1.00;;;;;13.55;68.33;98985.44;6287450;20;2726292;-56
2022/09/18 08:43:52;;;;;;;;;1.00;1.00;;;;;13.50;67.85;98998.47;6301870;20;1803504;-51
2022/09/18 08:46:48;;;;;;;;;3.00;3.00;;;;;14.11;67.60;98997.72;6304816;20;2739873;-55
2022/09/18 08:49:41;;;;;;;;;3.00;1.25;;;;;13.96;67.53;99005.31;6298288;20;1800378;-51
2022/09/18 08:52:28;;;;;;;;;10.00;10.00;;;;;14.66;66.94;99004.53;6317153;20;2786719;-54
2022/09/18 08:55:29;;;;;;;;;1.75;1.75;;;;;15.51;64.60;98991.44;6297805;20;1804174;-55
2022/09/18 08:58:12;;;;;;;;;1.00;1.00;;;;;13.97;66.17;99015.13;6332888;20;1800151;-56
2022/09/18 09:01:00;;;;;;;;;1.00;1.00;;;;;13.47;68.16;99007.66;6316833;20;2726334;-56
2022/09/18 09:04:23;;;;;;;;;1.00;1.00;;;;;13.59;68.05;99012.03;6282416;20;2730501;-50
2022/09/18 09:07:21;;;;;;;;;3.00;1.00;;;;;13.63;69.14;98992.88;6280789;20;2735961;-51
2022/09/18 09:10:37;;;;;;;;;2.00;2.00;;;;;13.96;68.58;99013.44;6288429;20;2742111;-56
2022/09/18 09:13:54;;;;;;;;;2.00;2.00;;;;;14.02;68.17;99005.63;6287207;20;2723188;-53
2022/09/18 09:16:49;;;;;;;;;1.00;1.00;;;;;14.52;67.55;99017.53;6283212;20;2737804;-55
2022/09/18 09:19:54;;;;;;;;;3.00;2.00;;;;;14.09;68.64;99019.47;6287229;20;2743995;-55
2022/09/18 09:22:56;;;;;;;;;1.50;1.50;;;;;13.49;68.69;99019.19;6284172;20;2739893;-53
2022/09/18 09:26:04;;;;;;;;;1.25;1.00;;;;;13.91;67.96;99016.50;6302026;20;1801490;-49
2022/09/18 09:29:00;;;;;;;;;3.50;2.00;;;;;13.65;68.57;99015.19;6314144;20;2745163;-57
2022/09/18 09:31:50;;;;;;;;;3.50;2.00;;;;;14.05;67.89;99016.16;6285259;20;2734709;-53
2022/09/18 09:34:39;;;;;;;;;3.00;1.50;;;;;13.95;66.94;99019.78;6287219;20;2739825;-54
2022/09/18 09:37:18;;;;;;;;;4.00;4.00;;;;;14.42;65.68;99023.75;6282097;20;2750255;-56
2022/09/18 09:40:17;;;;;;;;;1.00;1.00;;;;;13.90;66.25;99017.50;6304074;20;1805315;-52
2022/09/18 09:42:57;;;;;;;;;1.00;1.00;;;;;14.77;64.59;99025.22;6319767;20;2729492;-49
2022/09/18 09:45:58;;;;;;;;;0.00;0.00;;;;;14.59;64.68;99035.81;6283607;20;2726336;-52
2022/09/18 09:48:52;;;;;;;;;0.75;0.00;;;;;14.35;64.63;99022.59;6300067;20;1802618;-52
2022/09/18 09:51:53;;;;;;;;;1.00;1.00;;;;;13.86;65.32;99032.25;6313623;20;2728360;-52
2022/09/18 09:54:20;;;;;;;;;1.00;1.00;;;;;14.52;63.34;99029.19;6284848;20;2731706;-53
2022/09/18 09:57:03;;;;;;;;;0.00;0.00;;;;;14.61;62.98;99041.06;6287000;20;2729435;-52
2022/09/18 10:00:11;;;;;;;;;0.00;0.00;;;;;14.62;64.20;99024.72;6293251;20;2728401;-51
2022/09/18 10:03:24;;;;;;;;;3.00;0.25;;;;;14.78;63.12;99039.56;6302974;20;1801467;-55
2022/09/18 10:06:28;;;;;;;;;1.00;1.00;;;;;14.38;63.28;99038.53;6315484;20;2721078;-51
2022/09/18 10:09:39;;;;;;;;;3.00;2.00;;;;;14.05;63.62;99053.09;6285315;20;2725290;-50
2022/09/18 10:12:28;;;;;;;;;2.00;2.00;;;;;14.01;64.19;99046.28;6289843;20;2732566;-51
2022/09/18 10:15:24;;;;;;;;;5.00;5.00;;;;;14.10;64.74;99050.00;6288427;20;2748150;-50
2022/09/18 10:18:00;;;;;;;;;16.00;14.33;;;;;14.39;64.92;99042.91;6310183;20;2808718;-49
2022/09/18 10:20:31;;;;;;;;;5.75;5.75;;;;;14.58;65.71;99058.38;6334282;20;1805464;-50
2022/09/18 10:23:22;;;;;;;;;3.00;3.00;;;;;14.41;65.00;99053.59;6322140;20;2727419;-50
2022/09/18 10:26:00;;;;;;;;;4.00;2.00;;;;;14.37;64.66;99060.25;6302306;20;1802489;-48
2022/09/18 10:28:29;;;;;;;;;3.00;3.00;;;;;14.23;65.24;99056.06;6335371;20;1802987;-47
2022/09/18 10:31:10;;;;;;;;;3.00;3.00;;;;;14.10;65.46;99053.56;6321965;20;2746084;-47
2022/09/18 10:33:48;;;;;;;;;2.00;1.00;;;;;14.49;64.28;99045.69;6264068;20;2741903;-51
2022/09/18 10:36:47;;;;;;;;;4.50;2.00;;;;;14.99;62.96;99056.56;6288669;20;2734687;-52
2022/09/18 10:39:37;;;;;;;;;1.00;1.00;;;;;14.61;63.57;99050.03;6292122;20;2721082;-47
2022/09/18 10:42:13;;;;;;;;;0.00;0.00;;;;;14.37;63.01;99057.56;6292068;20;2727401;-48
2022/09/18 10:44:48;;;;;;;;;0.00;0.00;;;;;14.28;63.83;99054.66;6289688;20;2735716;-49
2022/09/18 10:47:17;;;;;;;;;0.00;0.00;;;;;13.90;65.18;99062.50;6291405;20;2727395;-50
2022/09/18 10:50:09;;;;;;;;;0.00;0.00;;;;;14.06;63.79;99062.94;6305460;20;1796617;-49
2022/09/18 10:52:41;;;;;;;;;1.00;1.00;;;;;13.87;65.01;99054.69;6325629;20;2461763;-52
2022/09/18 10:55:13;;;;;;;;;1.00;1.00;;;;;14.18;64.76;99064.56;6288950;20;2735766;-50
2022/09/18 10:57:56;;;;;;;;;0.00;0.00;;;;;14.09;65.27;99065.34;6292078;20;2733648;-57
2022/09/18 11:00:24;;;;;;;;;2.75;1.00;;;;;14.26;64.79;99072.00;6308044;20;1803477;-53
2022/09/18 11:03:24;;;;;;;;;2.00;1.00;;;;;14.75;65.25;99077.69;6322012;20;2729588;-55
2022/09/18 11:06:17;;;;;;;;;1.00;1.00;;;;;14.73;65.15;99085.91;6300739;20;1800371;-53
2022/09/18 11:08:53;;;;;;;;;0.00;0.00;;;;;14.47;65.00;99086.31;6323918;20;2727770;-59
2022/09/18 11:11:34;;;;;;;;;0.00;0.00;;;;;15.15;64.46;99092.03;6290348;20;2727330;-60
2022/09/18 11:14:21;;;;;;;;;0.00;0.00;;;;;14.70;64.99;99091.59;6290438;20;2727367;-56
2022/09/18 11:16:55;;;;;;;;;1.50;0.00;;;;;14.94;62.99;99085.84;6287575;20;2725244;-59
2022/09/18 11:19:39;;;;;;;;;0.00;0.00;;;;;15.29;62.00;99084.53;6288848;20;2733639;-61
2022/09/18 11:22:38;;;;;;;;;19.00;18.00;;;;;16.15;61.49;99084.72;6283600;20;2827335;-60
2022/09/18 11:25:37;;;;;;;;;0.00;0.00;;;;;15.45;61.42;99082.13;6321981;20;2723200;-54
2022/09/18 11:28:39;;;;;;;;;2.00;2.00;;;;;15.31;63.76;99085.25;6288134;20;2746117;-59
2022/09/18 11:31:19;;;;;;;;;0.50;0.50;;;;;14.39;63.13;99083.44;6302412;20;1803473;-60
2022/09/18 11:33:55;;;;;;;;;0.00;0.00;;;;;14.70;63.08;99080.78;6308279;20;2725373;-59
2022/09/18 11:36:30;;;;;;;;;2.00;0.00;;;;;14.78;63.04;99082.81;6300242;20;1803481;-57
2022/09/18 11:38:59;;;;;;;;;1.00;0.00;;;;;15.16;61.68;99087.47;6317060;20;2729679;-59
2022/09/18 11:41:38;;;;;;;;;0.00;0.00;;;;;15.02;61.63;99080.63;6286775;20;2733678;-57
2022/09/18 11:44:30;;;;;;;;;2.00;2.00;;;;;14.99;62.26;99091.72;6286732;20;2750286;-58
2022/09/18 11:47:35;;;;;;;;;1.25;0.50;;;;;15.14;62.04;99089.47;6302471;20;1803527;-59
2022/09/18 11:50:18;;;;;;;;;0.00;0.00;;;;;15.83;60.73;99095.88;6317878;20;2727464;-59
2022/09/18 11:53:27;;;;;;;;;3.00;3.00;;;;;15.63;60.69;99090.41;6286911;20;2739871;-59
2022/09/18 11:56:17;;;;;;;;;0.00;0.00;;;;;14.64;62.34;99098.41;6286007;20;2728476;-59
2022/09/18 11:59:23;;;;;;;;;2.00;2.00;;;;;14.67;62.83;99094.56;6291062;20;2744027;-59
2022/09/18 12:02:31;;;;;;;;;2.00;2.00;;;;;14.52;63.84;99090.47;6289112;20;2732526;-54
2022/09/18 12:05:27;;;;;;;;;2.50;1.00;;;;;15.06;64.90;99087.47;6286216;20;2726272;-55